createdAt,value
2018-12-03T00:01:28.671Z,90.70
2018-12-03T00:04:00.588Z,90.30
2018-12-03T00:06:28.390Z,90.60
2018-12-03T00:08:56.097Z,91.20
2018-12-03T00:11:23.790Z,91.20
2018-12-03T00:13:51.703Z,91.10
2018-12-03T00:16:19.426Z,91.60
2018-12-03T00:18:47.126Z,91.30
2018-12-03T00:21:14.811Z,91.50
2018-12-03T00:23:42.514Z,91.60
2018-12-03T00:26:10.201Z,91.40
2018-12-03T00:28:37.966Z,91.50
2018-12-03T00:31:05.697Z,91.80
2018-12-03T00:33:33.402Z,91.50
2018-12-03T00:36:01.101Z,91.80
2018-12-03T00:38:28.801Z,92.00
2018-12-03T00:40:56.492Z,92.00
2018-12-03T00:43:24.219Z,92.00
2018-12-03T00:45:51.965Z,91.90
2018-12-03T00:48:19.633Z,91.90
2018-12-03T00:50:47.374Z,91.60
2018-12-03T00:53:15.098Z,91.80
2018-12-03T00:55:42.808Z,91.50
2018-12-03T00:58:10.559Z,91.70
2018-12-03T01:00:38.299Z,91.80
2018-12-03T01:03:06.189Z,91.70
2018-12-03T01:05:33.942Z,91.60
2018-12-03T01:08:01.779Z,91.80
2018-12-03T01:10:29.498Z,91.70
2018-12-03T01:12:57.323Z,91.60
2018-12-03T01:15:25.119Z,91.70
2018-12-03T01:17:52.855Z,91.80
2018-12-03T01:20:21.730Z,91.90
2018-12-03T01:22:49.494Z,91.70
2018-12-03T01:25:17.266Z,91.90
2018-12-03T01:27:45.022Z,92.30
2018-12-03T01:30:12.754Z,92.60
2018-12-03T01:32:40.537Z,92.70
2018-12-03T01:35:09.316Z,92.40
2018-12-03T01:37:37.209Z,92.40
2018-12-03T01:40:07.961Z,92.30
2018-12-03T01:42:35.717Z,92.20
2018-12-03T01:45:04.007Z,92.50
2018-12-03T01:47:31.748Z,92.60
2018-12-03T01:49:59.771Z,92.40
2018-12-03T01:52:27.434Z,92.60
2018-12-03T01:54:55.116Z,92.50
2018-12-03T01:57:22.826Z,92.70
2018-12-03T01:59:50.530Z,92.50
2018-12-03T02:02:18.251Z,92.50
2018-12-03T02:04:45.981Z,92.30
2018-12-03T02:07:13.656Z,92.30
2018-12-03T02:09:41.369Z,92.30
2018-12-03T02:12:09.098Z,92.30
2018-12-03T02:14:36.794Z,92.20
2018-12-03T02:17:04.720Z,92.10
2018-12-03T02:19:32.448Z,92.00
2018-12-03T02:22:00.382Z,91.80
2018-12-03T02:24:28.395Z,91.90
2018-12-03T02:26:56.098Z,91.80
2018-12-03T02:29:23.806Z,91.70
2018-12-03T02:31:51.629Z,91.70
2018-12-03T02:34:19.375Z,91.80
2018-12-03T02:36:47.068Z,91.60
2018-12-03T02:39:14.858Z,91.80
2018-12-03T02:41:42.581Z,91.90
2018-12-03T02:44:10.398Z,92.00
2018-12-03T02:46:38.106Z,92.10
2018-12-03T02:49:06.074Z,92.10
2018-12-03T02:51:33.853Z,92.20
2018-12-03T02:54:01.548Z,92.10
2018-12-03T02:56:29.295Z,92.00
2018-12-03T02:58:57.055Z,92.10
2018-12-03T03:01:24.883Z,92.00
2018-12-03T03:03:52.648Z,92.10
2018-12-03T03:06:20.345Z,92.00
2018-12-03T03:08:48.086Z,91.90
2018-12-03T03:11:15.831Z,91.80
2018-12-03T03:13:43.565Z,91.60
2018-12-03T03:16:11.369Z,91.60
2018-12-03T03:18:39.082Z,91.50
2018-12-03T03:21:07.177Z,91.90
2018-12-03T03:23:34.878Z,92.20
2018-12-03T03:26:02.610Z,92.00
2018-12-03T03:28:30.330Z,92.20
2018-12-03T03:30:58.067Z,91.80
2018-12-03T03:33:25.818Z,91.80
2018-12-03T03:35:53.603Z,92.00
2018-12-03T03:38:21.410Z,91.90
2018-12-03T03:40:49.294Z,92.00
2018-12-03T03:43:17.091Z,91.90
2018-12-03T03:45:44.788Z,91.60
2018-12-03T03:48:12.519Z,91.40
2018-12-03T03:50:40.206Z,91.70
2018-12-03T03:53:08.109Z,91.50
2018-12-03T03:55:35.949Z,91.20
2018-12-03T03:58:03.674Z,90.90
2018-12-03T04:00:31.365Z,91.10
2018-12-03T04:02:59.122Z,90.80
2018-12-03T04:05:26.858Z,90.70
2018-12-03T04:07:54.550Z,90.60
2018-12-03T04:10:22.348Z,90.60
2018-12-03T04:12:50.065Z,90.60
2018-12-03T04:15:17.854Z,90.50
2018-12-03T04:17:45.638Z,90.70
2018-12-03T04:20:16.568Z,90.20
2018-12-03T04:22:46.983Z,90.50
2018-12-03T04:25:14.755Z,90.20
2018-12-03T04:27:42.539Z,90.50
2018-12-03T04:30:19.289Z,90.60
2018-12-03T04:32:47.098Z,90.90
2018-12-03T04:35:14.931Z,91.10
2018-12-03T04:37:43.275Z,91.40
2018-12-03T04:40:12.468Z,91.60
2018-12-03T04:42:40.342Z,91.70
2018-12-03T04:45:13.830Z,92.10
2018-12-03T04:47:42.241Z,92.10
2018-12-03T04:50:12.851Z,92.20
2018-12-03T04:52:40.810Z,92.50
2018-12-03T04:55:09.856Z,93.10
2018-12-03T04:57:38.216Z,93.40
2018-12-03T05:00:18.126Z,93.60
2018-12-03T05:02:49.860Z,93.60
2018-12-03T05:05:17.892Z,93.40
2018-12-03T05:07:45.742Z,93.70
2018-12-03T05:10:15.788Z,93.70
2018-12-03T05:12:45.495Z,93.60
2018-12-03T05:15:13.639Z,93.80
2018-12-03T05:17:41.956Z,94.10
2018-12-03T05:20:13.719Z,94.10
2018-12-03T05:22:41.507Z,94.10
2018-12-03T05:25:09.925Z,94.10
2018-12-03T05:27:37.809Z,93.80
2018-12-03T05:30:10.728Z,93.50
2018-12-03T05:32:38.839Z,93.60
2018-12-03T05:35:09.374Z,93.50
2018-12-03T05:37:37.196Z,93.50
2018-12-03T05:40:12.278Z,93.40
2018-12-03T05:42:40.120Z,93.40
2018-12-03T05:45:08.910Z,93.40
2018-12-03T05:47:36.743Z,93.30
2018-12-03T05:50:07.783Z,93.40
2018-12-03T05:52:35.582Z,93.30
2018-12-03T05:55:04.096Z,93.30
2018-12-03T05:57:31.922Z,93.20
2018-12-03T05:59:59.747Z,93.30
2018-12-03T06:02:27.620Z,93.00
2018-12-03T06:04:55.422Z,92.90
2018-12-03T06:07:23.298Z,92.50
2018-12-03T06:09:51.091Z,92.50
2018-12-03T06:12:18.924Z,92.50
2018-12-03T06:14:47.336Z,92.40
2018-12-03T06:17:15.100Z,92.20
2018-12-03T06:19:42.835Z,92.30
2018-12-03T06:22:10.702Z,92.10
2018-12-03T06:24:38.465Z,92.10
2018-12-03T06:27:06.238Z,92.20
2018-12-03T06:29:34.030Z,91.90
2018-12-03T06:32:02.233Z,91.70
2018-12-03T06:34:30.166Z,91.90
2018-12-03T06:36:57.994Z,91.80
2018-12-03T06:39:25.765Z,91.80
2018-12-03T06:41:53.639Z,91.90
2018-12-03T06:44:21.569Z,91.80
2018-12-03T06:46:49.390Z,92.00
2018-12-03T06:49:17.256Z,91.80
2018-12-03T06:51:45.071Z,91.80
2018-12-03T06:54:12.918Z,91.80
2018-12-03T06:56:40.651Z,91.90
2018-12-03T06:59:08.671Z,92.00
2018-12-03T07:01:36.422Z,91.70
2018-12-03T07:04:04.444Z,91.80
2018-12-03T07:06:32.446Z,92.00
2018-12-03T07:09:00.359Z,92.00
2018-12-03T07:11:28.132Z,91.80
2018-12-03T07:13:55.868Z,91.80
2018-12-03T07:16:23.624Z,91.60
2018-12-03T07:18:51.438Z,91.40
2018-12-03T07:21:19.236Z,91.20
2018-12-03T07:23:47.068Z,91.30
2018-12-03T07:26:15.951Z,90.90
2018-12-03T07:28:43.728Z,91.10
2018-12-03T07:31:11.458Z,91.20
2018-12-03T07:33:46.004Z,90.90
2018-12-03T07:36:13.788Z,90.50
2018-12-03T07:38:41.538Z,90.40
2018-12-03T07:41:10.394Z,90.20
2018-12-03T07:43:38.227Z,90.10
2018-12-03T07:46:06.003Z,89.60
2018-12-03T07:48:33.877Z,88.60
2018-12-03T07:51:02.405Z,87.90
2018-12-03T07:53:30.546Z,87.90
2018-12-03T07:55:58.538Z,87.30
2018-12-03T07:58:26.531Z,87.10
2018-12-03T08:00:57.043Z,87.30
2018-12-03T08:03:24.864Z,85.50
2018-12-03T08:05:52.623Z,85.80
2018-12-03T08:08:20.415Z,86.20
2018-12-03T08:10:53.790Z,87.70
2018-12-03T08:13:21.877Z,89.70
2018-12-03T08:15:49.651Z,90.30
2018-12-03T08:18:19.197Z,90.90
2018-12-03T08:20:49.184Z,91.00
2018-12-03T08:23:23.854Z,91.60
2018-12-03T08:25:51.785Z,91.60
2018-12-03T08:28:19.651Z,91.90
2018-12-03T08:30:47.474Z,92.00
2018-12-03T08:33:15.256Z,92.20
2018-12-03T08:35:43.232Z,92.30
2018-12-03T08:38:11.105Z,92.30
2018-12-03T08:40:38.928Z,91.50
2018-12-03T08:43:06.761Z,91.60
2018-12-03T08:45:35.497Z,91.60
2018-12-03T08:48:03.512Z,91.40
2018-12-03T08:50:31.339Z,91.30
2018-12-03T08:52:59.139Z,91.00
2018-12-03T08:55:37.689Z,91.10
2018-12-03T08:58:14.818Z,91.00
2018-12-03T09:00:47.752Z,91.00
2018-12-03T09:03:23.364Z,91.30
2018-12-03T09:05:51.749Z,90.20
2018-12-03T09:08:19.771Z,90.10
2018-12-03T09:10:47.642Z,89.60
2018-12-03T09:13:17.684Z,89.20
2018-12-03T09:15:54.925Z,89.20
2018-12-03T09:18:22.848Z,88.10
2018-12-03T09:20:50.684Z,87.90
2018-12-03T09:23:18.518Z,87.70
2018-12-03T09:25:46.282Z,87.90
2018-12-03T09:28:14.251Z,88.20
2018-12-03T09:30:42.067Z,87.90
2018-12-03T09:33:10.036Z,87.30
2018-12-03T09:35:38.991Z,88.20
2018-12-03T09:38:06.938Z,87.90
2018-12-03T09:40:34.802Z,88.10
2018-12-03T09:43:02.633Z,88.60
2018-12-03T09:45:31.912Z,88.10
2018-12-03T09:47:59.702Z,88.40
2018-12-03T09:50:28.154Z,88.60
2018-12-03T09:52:56.395Z,87.90
2018-12-03T09:55:26.649Z,88.10
2018-12-03T09:57:58.685Z,88.80
2018-12-03T10:00:26.480Z,88.80
2018-12-03T10:02:54.894Z,89.60
2018-12-03T10:05:24.203Z,89.90
2018-12-03T10:07:51.987Z,90.30
2018-12-03T10:10:19.835Z,90.70
2018-12-03T10:12:47.672Z,91.00
2018-12-03T10:15:15.590Z,91.00
2018-12-03T10:17:47.355Z,91.30
2018-12-03T10:20:15.098Z,91.30
2018-12-03T10:22:49.899Z,91.50
2018-12-03T10:25:17.766Z,91.20
2018-12-03T10:27:45.656Z,91.30
2018-12-03T10:30:17.524Z,91.50
2018-12-03T10:32:46.618Z,91.90
2018-12-03T10:35:14.460Z,91.60
2018-12-03T10:37:42.340Z,91.50
2018-12-03T10:40:13.886Z,91.50
2018-12-03T10:42:42.082Z,91.50
2018-12-03T10:45:14.863Z,91.20
2018-12-03T10:47:42.632Z,91.50
2018-12-03T10:50:15.067Z,90.70
2018-12-03T10:52:43.448Z,90.60
2018-12-03T10:55:12.409Z,90.20
2018-12-03T10:57:41.763Z,89.20
2018-12-03T11:00:22.409Z,88.60
2018-12-03T11:02:57.456Z,87.50
2018-12-03T11:05:34.478Z,86.80
2018-12-03T11:08:02.619Z,86.80
2018-12-03T11:10:33.782Z,86.80
2018-12-03T11:13:01.730Z,86.90
2018-12-03T11:15:29.596Z,87.10
2018-12-03T11:17:57.795Z,86.80
2018-12-03T11:20:25.637Z,87.50
2018-12-03T11:22:53.582Z,86.40
2018-12-03T11:25:26.323Z,87.50
2018-12-03T11:27:54.272Z,86.20
2018-12-03T11:30:23.023Z,86.60
2018-12-03T11:32:50.889Z,87.90
2018-12-03T11:35:26.629Z,87.90
2018-12-03T11:38:05.913Z,86.80
2018-12-03T11:40:44.909Z,86.00
2018-12-03T11:43:12.998Z,85.80
2018-12-03T11:45:40.888Z,84.70
2018-12-03T11:48:08.802Z,84.50
2018-12-03T11:50:36.671Z,85.30
2018-12-03T11:53:04.914Z,86.20
2018-12-03T11:55:32.781Z,85.30
2018-12-03T11:58:00.564Z,84.90
2018-12-03T12:00:28.329Z,85.60
2018-12-03T12:02:56.146Z,86.90
2018-12-03T12:05:24.065Z,87.50
2018-12-03T12:07:52.489Z,87.50
2018-12-03T12:10:20.294Z,88.80
2018-12-03T12:12:48.138Z,89.00
2018-12-03T12:15:15.908Z,89.00
2018-12-03T12:17:43.885Z,89.20
2018-12-03T12:20:12.097Z,89.90
2018-12-03T12:22:39.816Z,89.90
2018-12-03T12:25:10.411Z,90.20
2018-12-03T12:27:39.924Z,90.40
2018-12-03T12:30:12.060Z,91.00
2018-12-03T12:32:39.867Z,91.50
2018-12-03T12:35:08.447Z,91.60
2018-12-03T12:37:36.283Z,92.50
2018-12-03T12:40:07.510Z,92.80
2018-12-03T12:42:35.322Z,93.00
2018-12-03T12:45:04.099Z,93.10
2018-12-03T12:47:31.914Z,93.30
2018-12-03T12:49:59.729Z,93.80
2018-12-03T12:52:27.473Z,93.80
2018-12-03T12:54:55.275Z,93.50
2018-12-03T12:57:24.103Z,93.00
2018-12-03T12:59:51.887Z,92.70
2018-12-03T13:02:19.642Z,92.50
2018-12-03T13:04:47.484Z,92.30
2018-12-03T13:07:15.259Z,91.40
2018-12-03T13:09:43.015Z,91.20
2018-12-03T13:12:10.842Z,91.10
2018-12-03T13:14:38.724Z,90.90
2018-12-03T13:17:07.533Z,91.00
2018-12-03T13:19:35.337Z,90.90
2018-12-03T13:22:03.207Z,91.00
2018-12-03T13:24:31.297Z,90.80
2018-12-03T13:26:59.142Z,90.20
2018-12-03T13:29:27.037Z,90.70
2018-12-03T13:31:54.804Z,90.90
2018-12-03T13:34:23.078Z,91.30
2018-12-03T13:36:50.869Z,91.40
2018-12-03T13:39:18.846Z,91.20
2018-12-03T13:41:46.695Z,92.30
2018-12-03T13:44:14.489Z,92.70
2018-12-03T13:46:42.228Z,93.10
2018-12-03T13:49:10.108Z,93.50
2018-12-03T13:51:37.967Z,93.70
2018-12-03T13:54:06.657Z,93.70
2018-12-03T13:56:34.430Z,94.20
2018-12-03T13:59:02.513Z,94.00
2018-12-03T14:01:30.305Z,94.30
2018-12-03T14:04:03.716Z,94.40
2018-12-03T14:07:11.230Z,94.50
2018-12-03T14:11:55.120Z,93.90
2018-12-03T14:15:30.427Z,94.20
2018-12-03T14:18:10.767Z,94.40
2018-12-03T14:20:41.473Z,94.30
2018-12-03T14:23:12.339Z,94.60
2018-12-03T14:25:40.087Z,94.40
2018-12-03T14:28:08.755Z,94.40
2018-12-03T14:30:36.583Z,94.90
2018-12-03T14:33:05.108Z,95.20
2018-12-03T14:35:33.046Z,95.10
2018-12-03T14:38:00.869Z,95.00
2018-12-03T14:40:30.791Z,94.70
2018-12-03T14:42:58.530Z,94.40
2018-12-03T14:45:26.442Z,94.10
2018-12-03T14:47:54.277Z,93.50
2018-12-03T14:50:22.116Z,93.00
2018-12-03T14:52:49.901Z,92.90
2018-12-03T14:55:17.823Z,92.70
2018-12-03T14:57:45.589Z,92.60
2018-12-03T15:00:14.374Z,92.60
2018-12-03T15:02:42.158Z,92.20
2018-12-03T15:05:10.074Z,92.20
2018-12-03T15:07:37.906Z,91.90
2018-12-03T15:10:07.388Z,91.70
2018-12-03T15:12:35.303Z,91.70
2018-12-03T15:15:04.352Z,91.80
2018-12-03T15:17:32.136Z,92.10
2018-12-03T15:19:59.897Z,92.20
2018-12-03T15:22:27.704Z,92.10
2018-12-03T15:24:55.463Z,92.00
2018-12-03T15:27:23.301Z,92.10
2018-12-03T15:29:51.237Z,91.80
2018-12-03T15:32:19.055Z,91.90
2018-12-03T15:34:46.859Z,91.90
2018-12-03T15:37:14.663Z,91.80
2018-12-03T15:39:42.616Z,91.70
2018-12-03T15:42:10.679Z,91.80
2018-12-03T15:44:38.718Z,91.70
2018-12-03T15:47:06.623Z,91.80
2018-12-03T15:49:34.465Z,92.00
2018-12-03T15:52:02.690Z,91.90
2018-12-03T15:54:30.885Z,92.00
2018-12-03T15:56:58.745Z,92.00
2018-12-03T15:59:26.623Z,91.90
2018-12-03T16:01:54.483Z,91.80
2018-12-03T16:04:22.342Z,92.00
2018-12-03T16:06:50.133Z,92.00
2018-12-03T16:09:17.935Z,92.00
2018-12-03T16:11:45.815Z,91.60
2018-12-03T16:14:13.737Z,90.60
2018-12-03T16:16:41.559Z,90.90
2018-12-03T16:19:09.581Z,91.20
2018-12-03T16:21:37.541Z,91.00
2018-12-03T16:24:05.370Z,91.30
2018-12-03T16:26:33.139Z,91.50
2018-12-03T16:29:00.929Z,91.70
2018-12-03T16:31:28.861Z,91.80
2018-12-03T16:33:56.760Z,91.60
2018-12-03T16:37:02.094Z,91.80
2018-12-03T16:39:29.786Z,91.60
2018-12-03T16:41:57.502Z,91.60
2018-12-03T16:44:25.230Z,91.60
2018-12-03T16:46:53.297Z,91.40
2018-12-03T16:49:22.049Z,91.60
2018-12-03T16:51:49.968Z,91.50
2018-12-03T16:54:17.763Z,91.50
2018-12-03T16:56:45.470Z,91.90
2018-12-03T16:59:13.210Z,91.80
2018-12-03T17:01:58.396Z,92.10
2018-12-03T17:04:26.262Z,92.10
2018-12-03T17:06:54.051Z,91.80
2018-12-03T17:09:31.119Z,92.60
2018-12-03T17:12:01.068Z,92.60
2018-12-03T17:14:28.875Z,92.90
2018-12-03T17:16:56.636Z,93.00
2018-12-03T17:19:26.393Z,92.90
2018-12-03T17:22:21.342Z,93.20
2018-12-03T17:24:51.411Z,93.40
2018-12-03T17:27:19.720Z,93.00
2018-12-03T17:29:48.815Z,93.10
2018-12-03T17:32:20.026Z,93.20
2018-12-03T17:34:48.926Z,93.20
2018-12-03T17:37:17.036Z,93.20
2018-12-03T17:39:48.847Z,93.20
2018-12-03T17:42:20.488Z,93.40
2018-12-03T17:44:48.347Z,93.50
2018-12-03T17:47:16.126Z,93.50
2018-12-03T17:49:43.842Z,94.00
2018-12-03T17:52:11.617Z,93.90
2018-12-03T17:54:39.303Z,94.00
2018-12-03T17:57:07.062Z,93.90
2018-12-03T17:59:34.862Z,93.90
2018-12-03T18:02:02.726Z,93.90
2018-12-03T18:04:32.962Z,94.20
2018-12-03T18:07:00.802Z,94.00
2018-12-03T18:09:28.645Z,94.10
2018-12-03T18:11:56.463Z,94.10
2018-12-03T18:14:24.211Z,94.40
2018-12-03T18:16:52.263Z,94.50
2018-12-03T18:19:20.051Z,94.30
2018-12-03T18:21:47.877Z,94.70
2018-12-03T18:24:15.563Z,94.50
2018-12-03T18:26:43.405Z,94.50
2018-12-03T18:29:11.094Z,94.40
2018-12-03T18:31:38.816Z,94.40
2018-12-03T18:34:06.674Z,94.70
2018-12-03T18:36:34.470Z,95.10
2018-12-03T18:39:03.726Z,94.90
2018-12-03T18:41:33.510Z,94.80
2018-12-03T18:44:01.278Z,94.80
2018-12-03T18:49:29.002Z,95.00
2018-12-03T18:51:56.756Z,95.10
2018-12-03T18:54:24.552Z,95.10
2018-12-03T18:56:52.320Z,94.80
2018-12-03T18:59:20.134Z,94.60
2018-12-03T19:01:47.948Z,94.70
2018-12-03T19:04:24.895Z,94.60
2018-12-03T19:07:24.691Z,94.50
2018-12-03T19:09:54.193Z,94.70
2018-12-03T19:12:22.008Z,95.00
2018-12-03T19:14:49.763Z,95.00
2018-12-03T19:17:17.589Z,95.20
2018-12-03T19:19:45.383Z,95.30
2018-12-03T19:22:13.190Z,95.00
2018-12-03T19:24:41.027Z,94.50
2018-12-03T19:27:08.933Z,94.90
2018-12-03T19:29:38.925Z,95.30
2018-12-03T19:32:08.617Z,94.70
2018-12-03T19:34:38.517Z,94.50
2018-12-03T19:37:08.582Z,94.40
2018-12-03T19:39:36.338Z,94.40
2018-12-03T19:42:04.084Z,94.30
2018-12-03T19:44:31.805Z,94.40
2018-12-03T19:46:59.543Z,94.50
2018-12-03T19:49:27.412Z,94.20
2018-12-03T19:51:56.648Z,93.90
2018-12-03T19:54:24.521Z,93.90
2018-12-03T19:56:52.478Z,93.10
2018-12-03T19:59:21.933Z,93.40
2018-12-03T20:01:49.982Z,94.10
2018-12-03T20:04:21.134Z,93.60
2018-12-03T20:06:49.456Z,94.40
2018-12-03T20:09:17.149Z,90.10
2018-12-03T20:11:45.034Z,89.40
2018-12-03T20:14:13.416Z,90.20
2018-12-03T20:16:41.188Z,90.70
2018-12-03T20:19:09.427Z,91.30
2018-12-03T20:21:37.251Z,91.80
2018-12-03T20:24:08.391Z,92.50
2018-12-03T20:26:41.624Z,92.70
2018-12-03T20:31:37.602Z,93.20
2018-12-03T20:34:15.446Z,93.20
2018-12-03T20:38:07.668Z,93.70
2018-12-03T20:40:46.889Z,94.10
2018-12-03T20:43:19.458Z,94.70
2018-12-03T20:45:56.429Z,94.90
2018-12-03T20:48:33.223Z,95.30
2018-12-03T20:51:08.415Z,95.60
2018-12-03T20:53:43.782Z,95.80
2018-12-03T20:56:12.415Z,94.90
2018-12-03T20:58:40.270Z,94.80
2018-12-03T21:01:08.150Z,94.10
2018-12-03T21:03:36.035Z,93.90
2018-12-03T21:06:03.816Z,93.40
2018-12-03T21:08:31.786Z,93.20
2018-12-03T21:10:59.584Z,93.00
2018-12-03T21:13:28.083Z,93.10
2018-12-03T21:15:57.814Z,92.40
2018-12-03T21:18:25.676Z,92.40
2018-12-03T21:20:54.548Z,92.70
2018-12-03T21:23:22.300Z,92.60
2018-12-03T21:25:50.659Z,92.20
2018-12-03T21:28:18.805Z,92.40
2018-12-03T21:30:47.192Z,92.40
2018-12-03T21:33:14.987Z,92.40
2018-12-03T21:35:43.668Z,92.30
2018-12-03T21:38:11.707Z,92.30
2018-12-03T21:40:39.767Z,92.10
2018-12-03T21:43:08.382Z,91.80
2018-12-03T21:45:36.855Z,91.80
2018-12-03T21:48:04.646Z,91.50
2018-12-03T21:50:32.511Z,91.70
2018-12-03T21:53:00.291Z,91.50
2018-12-03T21:55:28.203Z,92.10
2018-12-03T21:57:56.731Z,92.30
2018-12-03T22:00:24.573Z,92.70
2018-12-03T22:02:52.376Z,93.00
2018-12-03T22:05:20.183Z,93.30
2018-12-03T22:07:47.968Z,93.40
2018-12-03T22:10:15.782Z,93.50
2018-12-03T22:12:44.752Z,93.50
2018-12-03T22:15:13.066Z,93.70
2018-12-03T22:17:40.945Z,93.70
2018-12-03T22:20:10.771Z,93.60
2018-12-03T22:22:38.765Z,93.90
2018-12-03T22:25:06.728Z,93.70
2018-12-03T22:27:34.647Z,93.20
2018-12-03T22:30:03.324Z,92.90
2018-12-03T22:32:31.191Z,92.80
2018-12-03T22:34:59.091Z,92.80
2018-12-03T22:37:26.905Z,92.90
2018-12-03T22:39:54.826Z,92.70
2018-12-03T22:42:22.684Z,92.60
2018-12-03T22:44:50.642Z,92.50
2018-12-03T22:47:18.427Z,92.60
2018-12-03T22:49:46.193Z,92.70
2018-12-03T22:52:14.113Z,92.70
2018-12-03T22:54:41.956Z,92.80
2018-12-03T22:57:09.839Z,93.20
2018-12-03T22:59:37.616Z,93.00
2018-12-03T23:02:05.431Z,93.30
2018-12-03T23:04:37.735Z,93.50
2018-12-03T23:07:05.573Z,93.70
2018-12-03T23:09:34.508Z,93.90
2018-12-03T23:12:02.656Z,93.70
2018-12-03T23:14:30.627Z,94.00
2018-12-03T23:16:59.678Z,94.00
2018-12-03T23:19:27.507Z,94.00
2018-12-03T23:21:55.268Z,94.10
2018-12-03T23:24:23.183Z,93.90
2018-12-03T23:26:51.133Z,93.70
2018-12-03T23:29:18.959Z,93.20
2018-12-03T23:31:46.983Z,93.30
2018-12-03T23:34:14.687Z,93.40
2018-12-03T23:36:42.694Z,93.10
2018-12-03T23:39:10.429Z,93.20
2018-12-03T23:41:38.427Z,93.00
2018-12-03T23:44:06.146Z,93.20
2018-12-03T23:46:33.844Z,93.30
2018-12-03T23:49:01.559Z,93.40
2018-12-03T23:51:29.329Z,93.20
2018-12-03T23:53:57.298Z,93.00
2018-12-03T23:56:25.109Z,93.10
2018-12-03T23:58:52.950Z,93.30
